createdAt,value
2023-03-29T00:02:23.010Z,97870.38
2023-03-29T00:04:50.620Z,97855.06
2023-03-29T00:07:18.340Z,97864.50
2023-03-29T00:09:47.259Z,97860.22
2023-03-29T00:12:15.471Z,97875.63
2023-03-29T00:14:43.028Z,97881.41
2023-03-29T00:17:10.675Z,97870.97
2023-03-29T00:19:38.400Z,97879.28
2023-03-29T00:22:06.348Z,97864.53
2023-03-29T00:24:33.929Z,97871.78
2023-03-29T00:27:03.019Z,97865.94
2023-03-29T00:29:30.609Z,97859.63
2023-03-29T00:31:58.417Z,97870.06
2023-03-29T00:34:27.417Z,97864.75
2023-03-29T00:36:54.991Z,97867.69
2023-03-29T00:39:22.610Z,97868.63
2023-03-29T00:41:51.173Z,97857.94
2023-03-29T00:44:57.071Z,97859.34
2023-03-29T00:47:30.727Z,97851.09
2023-03-29T00:50:05.145Z,97837.00
2023-03-29T00:52:34.339Z,97844.97
2023-03-29T00:55:08.052Z,97839.78
2023-03-29T00:57:38.777Z,97835.97
2023-03-29T01:00:10.924Z,97841.03
2023-03-29T01:02:42.209Z,97828.63
2023-03-29T01:05:17.428Z,97831.47
2023-03-29T01:07:52.575Z,97803.78
2023-03-29T01:10:27.314Z,97820.13
2023-03-29T01:13:04.900Z,97824.59
2023-03-29T01:15:34.109Z,97794.19
2023-03-29T01:18:02.105Z,97812.66
2023-03-29T01:20:43.593Z,97803.00
2023-03-29T01:23:28.630Z,97792.72
2023-03-29T01:26:10.021Z,97793.56
2023-03-29T01:28:50.832Z,97810.16
2023-03-29T01:31:26.188Z,97796.47
2023-03-29T01:34:03.247Z,97794.81
2023-03-29T01:36:39.541Z,97800.31
2023-03-29T01:39:08.120Z,97804.28
2023-03-29T01:41:46.453Z,97790.22
2023-03-29T01:44:24.543Z,97796.66
2023-03-29T01:47:02.649Z,97790.84
2023-03-29T01:49:37.195Z,97792.75
2023-03-29T01:52:13.701Z,97817.03
2023-03-29T01:54:51.945Z,97845.94
2023-03-29T01:57:21.263Z,97840.66
2023-03-29T01:59:55.266Z,97826.72
2023-03-29T02:02:27.511Z,97829.75
2023-03-29T02:04:57.528Z,97825.47
2023-03-29T02:07:29.724Z,97832.56
2023-03-29T02:09:58.720Z,97803.16
2023-03-29T02:12:26.396Z,97812.09
2023-03-29T02:14:57.551Z,97805.44
2023-03-29T02:17:27.801Z,97818.50
2023-03-29T02:20:02.330Z,97806.44
2023-03-29T02:22:40.621Z,97799.47
2023-03-29T02:25:09.092Z,97818.00
2023-03-29T02:27:37.827Z,97813.81
2023-03-29T02:30:10.229Z,97808.94
2023-03-29T02:32:49.050Z,97800.28
2023-03-29T02:35:27.107Z,97816.75
2023-03-29T02:37:57.980Z,97824.28
2023-03-29T02:40:26.103Z,97824.00
2023-03-29T02:42:57.508Z,97822.84
2023-03-29T02:45:29.671Z,97816.66
2023-03-29T02:48:03.609Z,97821.69
2023-03-29T02:50:37.717Z,97826.59
2023-03-29T02:53:11.935Z,97818.19
2023-03-29T02:55:41.015Z,97801.03
2023-03-29T02:58:08.679Z,97827.34
2023-03-29T03:00:41.968Z,97834.25
2023-03-29T03:03:12.773Z,97830.16
2023-03-29T03:05:40.885Z,97827.59
2023-03-29T03:08:08.510Z,97808.25
2023-03-29T03:10:36.910Z,97806.72
2023-03-29T03:13:04.467Z,97810.72
2023-03-29T03:15:32.568Z,97797.84
2023-03-29T03:18:01.938Z,97791.09
2023-03-29T03:20:30.059Z,97791.16
2023-03-29T03:22:57.780Z,97806.88
2023-03-29T03:25:25.752Z,97817.47
2023-03-29T03:27:54.556Z,97812.19
2023-03-29T03:30:22.160Z,97820.94
2023-03-29T03:32:49.799Z,97875.84
2023-03-29T03:35:18.902Z,97852.28
2023-03-29T03:37:46.538Z,97843.75
2023-03-29T03:40:14.726Z,97828.53
2023-03-29T03:42:42.349Z,97810.13
2023-03-29T03:45:10.850Z,97791.09
2023-03-29T03:47:38.747Z,97779.88
2023-03-29T03:50:07.886Z,97784.28
2023-03-29T03:52:39.457Z,97784.88
2023-03-29T03:55:07.722Z,97787.97
2023-03-29T03:57:35.711Z,97797.41
2023-03-29T04:00:04.221Z,97790.66
2023-03-29T04:02:32.112Z,97781.63
2023-03-29T04:04:59.743Z,97788.38
2023-03-29T04:07:28.781Z,97790.78
2023-03-29T04:09:57.834Z,97791.59
2023-03-29T04:12:25.487Z,97781.69
2023-03-29T04:14:55.656Z,97782.09
2023-03-29T04:17:23.831Z,97789.47
2023-03-29T04:19:51.637Z,97790.44
2023-03-29T04:22:19.247Z,97788.91
2023-03-29T04:24:46.815Z,97786.75
2023-03-29T04:27:15.697Z,97795.16
2023-03-29T04:29:43.392Z,97796.81
2023-03-29T04:32:11.095Z,97797.38
2023-03-29T04:34:38.842Z,97797.19
2023-03-29T04:37:06.588Z,97795.22
2023-03-29T04:39:34.411Z,97782.63
2023-03-29T04:42:02.041Z,97780.53
2023-03-29T04:44:31.258Z,97774.09
2023-03-29T04:46:59.352Z,97781.91
2023-03-29T04:49:27.077Z,97781.03
2023-03-29T04:51:55.289Z,97777.91
2023-03-29T04:54:22.921Z,97778.06
2023-03-29T04:56:50.447Z,97787.13
2023-03-29T04:59:18.053Z,97779.00
2023-03-29T05:01:47.043Z,97785.00
2023-03-29T05:04:14.768Z,97780.31
2023-03-29T05:06:42.355Z,97778.44
2023-03-29T05:09:11.326Z,97771.22
2023-03-29T05:11:38.873Z,97771.81
2023-03-29T05:14:06.475Z,97760.31
2023-03-29T05:16:35.500Z,97764.63
2023-03-29T05:19:05.082Z,97763.56
2023-03-29T05:21:35.001Z,97759.19
2023-03-29T05:24:04.804Z,97765.78
2023-03-29T05:26:32.525Z,97760.16
2023-03-29T05:29:00.123Z,97757.19
2023-03-29T05:31:27.756Z,97761.56
2023-03-29T05:33:56.408Z,97771.66
2023-03-29T05:36:26.968Z,97773.16
2023-03-29T05:38:54.597Z,97771.06
2023-03-29T05:41:22.826Z,97771.25
2023-03-29T05:43:50.736Z,97763.47
2023-03-29T05:46:18.589Z,97755.59
2023-03-29T05:48:46.580Z,97753.69
2023-03-29T05:51:14.483Z,97769.13
2023-03-29T05:53:43.838Z,97775.47
2023-03-29T05:56:13.051Z,97778.66
2023-03-29T05:58:40.794Z,97782.97
2023-03-29T06:01:12.234Z,97791.94
2023-03-29T06:03:41.058Z,97784.56
2023-03-29T06:06:09.641Z,97788.53
2023-03-29T06:08:37.529Z,97798.63
2023-03-29T06:11:07.363Z,97790.16
2023-03-29T06:13:35.241Z,97783.53
2023-03-29T06:16:02.998Z,97792.56
2023-03-29T06:18:30.546Z,97794.22
2023-03-29T06:20:58.609Z,97794.16
2023-03-29T06:23:26.437Z,97801.19
2023-03-29T06:25:55.341Z,97808.41
2023-03-29T06:28:24.348Z,97813.56
2023-03-29T06:30:52.201Z,97812.88
2023-03-29T06:33:20.065Z,97803.84
2023-03-29T06:35:49.652Z,97809.09
2023-03-29T06:38:17.319Z,97816.00
2023-03-29T06:40:44.993Z,97821.88
2023-03-29T06:43:12.962Z,97824.97
2023-03-29T06:45:46.383Z,97820.53
2023-03-29T06:48:14.199Z,97819.34
2023-03-29T06:50:41.779Z,97808.00
2023-03-29T06:53:09.425Z,97815.16
2023-03-29T06:55:37.003Z,97819.44
2023-03-29T06:58:04.512Z,97820.75
2023-03-29T07:00:33.189Z,97823.88
2023-03-29T07:03:06.254Z,97805.75
2023-03-29T07:05:34.161Z,97815.78
2023-03-29T07:08:02.577Z,97814.84
2023-03-29T07:10:32.970Z,97817.75
2023-03-29T07:13:01.328Z,97821.63
2023-03-29T07:15:29.034Z,97827.97
2023-03-29T07:17:56.915Z,97838.75
2023-03-29T07:20:26.298Z,97849.97
2023-03-29T07:22:54.541Z,97848.78
2023-03-29T07:25:23.955Z,97861.09
2023-03-29T07:27:51.593Z,97871.38
2023-03-29T07:30:22.093Z,97864.41
2023-03-29T07:32:51.167Z,97860.63
2023-03-29T07:35:19.434Z,97865.19
2023-03-29T07:37:49.079Z,97867.78
2023-03-29T07:40:18.899Z,97875.66
2023-03-29T07:42:46.728Z,97873.50
2023-03-29T07:45:16.032Z,97875.94
2023-03-29T07:47:44.424Z,97872.19
2023-03-29T07:50:12.327Z,97863.13
2023-03-29T07:52:40.768Z,97859.59
2023-03-29T07:55:11.663Z,97862.50
2023-03-29T07:57:39.834Z,97859.94
2023-03-29T08:00:08.855Z,97857.41
2023-03-29T08:02:36.508Z,97871.53
2023-03-29T08:05:04.672Z,97871.28
2023-03-29T08:07:32.579Z,97875.06
2023-03-29T08:10:00.250Z,97871.47
2023-03-29T08:12:29.304Z,97865.78
2023-03-29T08:14:56.932Z,97872.63
2023-03-29T08:17:24.638Z,97876.25
2023-03-29T08:19:52.463Z,97885.53
2023-03-29T08:22:20.137Z,97890.03
2023-03-29T08:24:47.787Z,97887.22
2023-03-29T08:27:16.410Z,97886.44
2023-03-29T08:29:47.696Z,97884.47
2023-03-29T08:32:15.260Z,97879.22
2023-03-29T08:34:42.999Z,97889.97
2023-03-29T08:37:10.637Z,97879.81
2023-03-29T08:39:38.472Z,97872.84
2023-03-29T08:42:29.582Z,97876.06
2023-03-29T08:45:09.262Z,97875.91
2023-03-29T08:47:51.575Z,97865.25
2023-03-29T08:50:22.631Z,97863.41
2023-03-29T08:52:57.156Z,97867.72
2023-03-29T08:55:31.579Z,97874.47
2023-03-29T08:58:02.776Z,97871.56
2023-03-29T09:00:39.933Z,97879.31
2023-03-29T09:03:18.600Z,97884.63
2023-03-29T09:05:51.291Z,97878.19
2023-03-29T09:08:21.701Z,97873.69
2023-03-29T09:11:11.338Z,97867.06
2023-03-29T09:13:52.002Z,97867.09
2023-03-29T09:16:33.020Z,97874.38
2023-03-29T09:19:14.103Z,97878.19
2023-03-29T09:21:49.023Z,97875.94
2023-03-29T09:24:40.846Z,97879.16
2023-03-29T09:27:13.406Z,97872.56
2023-03-29T09:29:57.972Z,97879.03
2023-03-29T09:32:33.568Z,97869.22
2023-03-29T09:35:13.680Z,97878.16
2023-03-29T09:37:42.264Z,97883.00
2023-03-29T09:40:15.550Z,97880.78
2023-03-29T09:42:45.736Z,97889.59
2023-03-29T09:45:13.531Z,97877.44
2023-03-29T09:47:49.267Z,97874.53
2023-03-29T09:50:30.725Z,97877.00
2023-03-29T09:53:00.359Z,97873.88
2023-03-29T09:55:34.262Z,97881.09
2023-03-29T09:58:10.932Z,97876.22
2023-03-29T10:00:39.826Z,97876.38
2023-03-29T10:03:10.585Z,97878.94
2023-03-29T10:05:38.584Z,97871.13
2023-03-29T10:08:22.596Z,97870.84
2023-03-29T10:10:50.175Z,97869.66
2023-03-29T10:13:28.021Z,97871.00
2023-03-29T10:16:02.157Z,97867.94
2023-03-29T10:18:32.514Z,97864.13
2023-03-29T10:21:02.205Z,97868.34
2023-03-29T10:23:32.225Z,97861.84
2023-03-29T10:26:02.407Z,97856.81
2023-03-29T10:28:32.958Z,97863.50
2023-03-29T10:31:02.129Z,97867.84
2023-03-29T10:33:34.388Z,97848.31
2023-03-29T10:36:07.217Z,97849.91
2023-03-29T10:38:36.905Z,97854.06
2023-03-29T10:41:10.235Z,97863.50
2023-03-29T10:43:42.587Z,97853.44
2023-03-29T10:46:12.324Z,97854.84
2023-03-29T10:48:47.827Z,97858.06
2023-03-29T10:51:18.274Z,97863.31
2023-03-29T10:53:46.335Z,97868.63
2023-03-29T10:56:36.380Z,97843.63
2023-03-29T10:59:21.134Z,97832.69
2023-03-29T11:02:08.195Z,97846.53
2023-03-29T11:04:47.866Z,97848.97
2023-03-29T11:07:34.505Z,97859.91
2023-03-29T11:10:29.052Z,97856.00
2023-03-29T11:13:07.953Z,97833.41
2023-03-29T11:15:56.438Z,97836.00
2023-03-29T11:18:44.799Z,97857.25
2023-03-29T11:21:27.451Z,97855.28
2023-03-29T11:24:20.910Z,97834.31
2023-03-29T11:27:08.578Z,97832.50
2023-03-29T11:29:49.614Z,97822.03
2023-03-29T11:32:28.398Z,97822.81
2023-03-29T11:35:10.634Z,97839.09
2023-03-29T11:37:52.331Z,97833.84
2023-03-29T11:40:34.086Z,97832.25
2023-03-29T11:43:09.223Z,97826.75
2023-03-29T11:45:43.388Z,97825.97
2023-03-29T11:48:20.630Z,97810.22
2023-03-29T11:50:55.425Z,97823.94
2023-03-29T11:53:31.022Z,97829.38
2023-03-29T11:56:08.531Z,97824.31
2023-03-29T11:58:42.923Z,97832.75
2023-03-29T12:01:17.592Z,97827.94
2023-03-29T12:03:52.992Z,97832.03
2023-03-29T12:06:28.204Z,97811.00
2023-03-29T12:09:02.591Z,97799.38
2023-03-29T12:11:38.650Z,97785.72
2023-03-29T12:14:15.132Z,97801.25
2023-03-29T12:16:49.455Z,97809.25
2023-03-29T12:19:22.013Z,97792.94
2023-03-29T12:21:52.613Z,97769.66
2023-03-29T12:24:26.835Z,97767.44
2023-03-29T12:27:24.290Z,97777.00
2023-03-29T12:30:22.626Z,97778.56
2023-03-29T12:33:15.795Z,97774.09
2023-03-29T12:36:02.604Z,97773.31
2023-03-29T12:38:32.459Z,97772.22
2023-03-29T12:41:13.905Z,97766.88
2023-03-29T12:43:42.271Z,97775.16
2023-03-29T12:46:16.617Z,97774.47
2023-03-29T12:48:48.592Z,97764.38
2023-03-29T12:51:20.678Z,97777.13
2023-03-29T12:53:52.214Z,97770.66
2023-03-29T12:56:23.939Z,97767.63
2023-03-29T12:59:24.014Z,97767.25
2023-03-29T13:02:00.659Z,97767.94
2023-03-29T13:04:48.196Z,97764.69
2023-03-29T13:07:31.543Z,97756.47
2023-03-29T13:10:01.844Z,97766.94
2023-03-29T13:12:39.969Z,97763.19
2023-03-29T13:15:23.806Z,97761.44
2023-03-29T13:18:06.196Z,97751.41
2023-03-29T13:20:45.896Z,97740.88
2023-03-29T13:23:30.981Z,97741.31
2023-03-29T13:26:17.285Z,97733.16
2023-03-29T13:29:07.680Z,97728.78
2023-03-29T13:31:43.407Z,97723.16
2023-03-29T13:34:29.769Z,97711.16
2023-03-29T13:37:12.387Z,97707.06
2023-03-29T13:39:49.343Z,97705.81
2023-03-29T13:42:20.398Z,97697.03
2023-03-29T13:44:51.017Z,97700.94
2023-03-29T13:47:40.222Z,97710.31
2023-03-29T13:50:17.010Z,97710.66
2023-03-29T13:53:06.100Z,97711.19
2023-03-29T13:55:44.156Z,97706.84
2023-03-29T13:58:19.985Z,97697.06
2023-03-29T14:00:55.220Z,97691.44
2023-03-29T14:03:26.756Z,97692.06
2023-03-29T14:06:00.627Z,97679.78
2023-03-29T14:08:35.440Z,97669.91
2023-03-29T14:11:07.598Z,97665.41
2023-03-29T14:13:35.704Z,97671.81
2023-03-29T14:16:09.772Z,97662.31
2023-03-29T14:18:40.996Z,97666.28
2023-03-29T14:21:12.347Z,97649.38
2023-03-29T14:23:44.740Z,97646.31
2023-03-29T14:26:17.686Z,97643.28
2023-03-29T14:28:48.656Z,97638.88
2023-03-29T14:31:23.332Z,97639.56
2023-03-29T14:33:56.670Z,97643.44
2023-03-29T14:36:26.949Z,97643.88
2023-03-29T14:38:57.800Z,97641.97
2023-03-29T14:41:30.290Z,97640.16
2023-03-29T14:43:59.668Z,97630.97
2023-03-29T14:46:30.236Z,97643.66
2023-03-29T14:48:59.709Z,97643.03
2023-03-29T14:51:27.915Z,97647.06
2023-03-29T14:53:59.060Z,97634.56
2023-03-29T14:56:27.436Z,97632.09
2023-03-29T14:58:56.666Z,97628.16
2023-03-29T15:01:26.372Z,97625.69
2023-03-29T15:03:56.736Z,97622.06
2023-03-29T15:06:27.621Z,97614.66
2023-03-29T15:09:05.248Z,97611.28
2023-03-29T15:11:37.174Z,97607.00
2023-03-29T15:14:08.799Z,97599.72
2023-03-29T15:16:41.839Z,97598.28
2023-03-29T15:19:19.502Z,97595.28
2023-03-29T15:21:50.040Z,97594.19
2023-03-29T15:24:22.282Z,97588.81
2023-03-29T15:27:01.510Z,97586.50
2023-03-29T15:29:40.653Z,97588.06
2023-03-29T15:32:09.817Z,97581.78
2023-03-29T15:34:38.848Z,97572.44
2023-03-29T15:37:06.632Z,97572.41
2023-03-29T15:39:34.573Z,97574.38
2023-03-29T15:42:02.399Z,97568.28
2023-03-29T15:44:33.192Z,97567.81
2023-03-29T15:47:00.945Z,97558.75
2023-03-29T15:49:28.634Z,97559.25
2023-03-29T15:51:57.723Z,97553.03
2023-03-29T15:54:25.667Z,97556.50
2023-03-29T15:57:01.264Z,97561.09
2023-03-29T15:59:30.465Z,97551.81
2023-03-29T16:01:58.356Z,97543.44
2023-03-29T16:04:27.229Z,97544.22
2023-03-29T16:06:56.875Z,97534.25
2023-03-29T16:09:24.791Z,97534.97
2023-03-29T16:11:52.717Z,97532.78
2023-03-29T16:14:22.615Z,97526.28
2023-03-29T16:16:50.801Z,97522.94
2023-03-29T16:19:19.471Z,97529.50
2023-03-29T16:21:48.590Z,97518.88
2023-03-29T16:24:25.168Z,97523.13
2023-03-29T16:26:56.081Z,97530.06
2023-03-29T16:29:24.901Z,97518.97
2023-03-29T16:31:53.794Z,97519.72
2023-03-29T16:34:22.818Z,97514.41
2023-03-29T16:36:51.575Z,97517.44
2023-03-29T16:39:20.581Z,97514.69
2023-03-29T16:41:48.803Z,97506.69
2023-03-29T16:44:21.782Z,97509.00
2023-03-29T16:46:51.456Z,97506.66
2023-03-29T16:49:20.296Z,97499.00
2023-03-29T16:51:48.058Z,97494.34
2023-03-29T16:54:16.615Z,97503.56
2023-03-29T16:56:46.136Z,97497.84
2023-03-29T16:59:15.805Z,97500.56
2023-03-29T17:01:43.562Z,97500.50
2023-03-29T17:04:11.459Z,97505.09
2023-03-29T17:06:40.800Z,97506.53
2023-03-29T17:09:10.105Z,97498.09
2023-03-29T17:11:37.731Z,97500.38
2023-03-29T17:14:08.162Z,97497.03
2023-03-29T17:16:35.759Z,97512.84
2023-03-29T17:19:03.433Z,97512.06
2023-03-29T17:21:31.029Z,97516.66
2023-03-29T17:23:58.982Z,97513.59
2023-03-29T17:26:26.672Z,97512.44
2023-03-29T17:28:54.782Z,97505.91
2023-03-29T17:31:23.979Z,97505.91
2023-03-29T17:33:51.719Z,97511.25
2023-03-29T17:36:19.617Z,97504.78
2023-03-29T17:38:47.452Z,97510.03
2023-03-29T17:41:16.975Z,97500.47
2023-03-29T17:43:44.619Z,97497.50
2023-03-29T17:46:13.577Z,97492.47
2023-03-29T17:48:42.488Z,97497.38
2023-03-29T17:51:10.055Z,97502.75
2023-03-29T17:53:37.641Z,97495.19
2023-03-29T17:56:06.158Z,97494.44
2023-03-29T17:58:33.930Z,97495.94
2023-03-29T18:01:08.230Z,97500.91
2023-03-29T18:03:36.159Z,97501.28
2023-03-29T18:06:06.454Z,97506.22
2023-03-29T18:08:37.797Z,97499.78
2023-03-29T18:11:10.279Z,97490.50
2023-03-29T18:13:38.026Z,97505.63
2023-03-29T18:16:06.893Z,97496.13
2023-03-29T18:18:35.610Z,97501.78
2023-03-29T18:21:05.587Z,97511.75
2023-03-29T18:23:33.457Z,97513.56
2023-03-29T18:26:03.166Z,97522.03
2023-03-29T18:28:31.294Z,97523.41
2023-03-29T18:30:59.157Z,97516.84
2023-03-29T18:33:26.802Z,97503.41
2023-03-29T18:35:54.489Z,97501.38
2023-03-29T18:38:23.495Z,97490.13
2023-03-29T18:40:51.125Z,97480.34
2023-03-29T18:43:18.950Z,97481.59
2023-03-29T18:45:46.684Z,97485.53
2023-03-29T18:48:14.936Z,97481.72
2023-03-29T18:50:43.196Z,97485.94
2023-03-29T18:53:10.839Z,97498.22
2023-03-29T18:55:41.366Z,97494.44
2023-03-29T18:58:09.259Z,97496.72
2023-03-29T19:00:37.536Z,97493.66
2023-03-29T19:03:05.790Z,97501.31
2023-03-29T19:05:33.530Z,97502.09
2023-03-29T19:08:01.589Z,97507.44
2023-03-29T19:10:29.135Z,97524.34
2023-03-29T19:12:58.083Z,97510.53
2023-03-29T19:15:25.870Z,97500.56
2023-03-29T19:17:53.494Z,97504.41
2023-03-29T19:20:21.126Z,97502.88
2023-03-29T19:22:48.663Z,97508.25
2023-03-29T19:25:16.434Z,97512.81
2023-03-29T19:27:44.060Z,97518.97
2023-03-29T19:30:15.049Z,97519.34
2023-03-29T19:32:42.983Z,97515.50
2023-03-29T19:35:10.581Z,97517.06
2023-03-29T19:37:38.900Z,97514.38
2023-03-29T19:40:07.925Z,97518.19
2023-03-29T19:42:35.573Z,97512.06
2023-03-29T19:45:04.852Z,97514.38
2023-03-29T19:47:34.134Z,97519.31
2023-03-29T19:50:02.790Z,97521.94
2023-03-29T19:52:30.734Z,97517.41
2023-03-29T19:54:58.394Z,97514.38
2023-03-29T19:57:26.095Z,97510.06
2023-03-29T19:59:53.667Z,97507.38
2023-03-29T20:02:21.298Z,97503.97
2023-03-29T20:04:50.207Z,97505.16
2023-03-29T20:07:17.860Z,97504.78
2023-03-29T20:09:45.488Z,97497.09
2023-03-29T20:12:13.246Z,97500.91
2023-03-29T20:14:40.966Z,97497.72
2023-03-29T20:17:08.662Z,97496.94
2023-03-29T20:19:36.321Z,97502.81
2023-03-29T20:22:07.933Z,97495.94
2023-03-29T20:24:37.276Z,97498.19
2023-03-29T20:27:05.386Z,97487.88
2023-03-29T20:29:33.252Z,97491.75
2023-03-29T20:32:00.833Z,97488.66
2023-03-29T20:34:29.275Z,97487.91
2023-03-29T20:36:56.916Z,97481.69
2023-03-29T20:39:26.286Z,97481.72
2023-03-29T20:41:54.655Z,97482.88
2023-03-29T20:44:23.162Z,97487.91
2023-03-29T20:46:50.805Z,97482.09
2023-03-29T20:49:18.494Z,97485.09
2023-03-29T20:51:46.164Z,97502.31
2023-03-29T20:54:13.805Z,97488.91
2023-03-29T20:56:42.846Z,97495.03
2023-03-29T20:59:10.679Z,97491.59
2023-03-29T21:01:38.578Z,97482.44
2023-03-29T21:04:06.663Z,97492.00
2023-03-29T21:06:34.628Z,97493.56
2023-03-29T21:09:02.285Z,97501.59
2023-03-29T21:11:29.870Z,97505.78
2023-03-29T21:13:58.833Z,97499.63
2023-03-29T21:16:26.441Z,97495.41
2023-03-29T21:18:54.395Z,97501.19
2023-03-29T21:21:21.938Z,97490.09
2023-03-29T21:23:49.590Z,97483.97
2023-03-29T21:26:17.587Z,97478.63
2023-03-29T21:28:45.242Z,97475.97
2023-03-29T21:31:14.460Z,97472.16
2023-03-29T21:33:42.422Z,97469.09
2023-03-29T21:36:10.145Z,97469.84
2023-03-29T21:38:37.790Z,97470.97
2023-03-29T21:41:08.734Z,97466.75
2023-03-29T21:43:36.611Z,97472.91
2023-03-29T21:46:04.786Z,97467.91
2023-03-29T21:48:34.503Z,97480.59
2023-03-29T21:51:03.124Z,97469.84
2023-03-29T21:53:30.912Z,97469.09
2023-03-29T21:55:58.582Z,97462.97
2023-03-29T21:58:26.746Z,97452.63
2023-03-29T22:00:55.817Z,97455.28
2023-03-29T22:03:28.969Z,97461.00
2023-03-29T22:06:05.686Z,97449.50
2023-03-29T22:08:34.054Z,97450.28
2023-03-29T22:11:08.207Z,97453.72
2023-03-29T22:13:36.027Z,97450.28
2023-03-29T22:16:05.201Z,97444.91
2023-03-29T22:18:35.180Z,97439.91
2023-03-29T22:21:04.312Z,97429.56
2023-03-29T22:23:32.323Z,97435.31
2023-03-29T22:26:04.910Z,97424.19
2023-03-29T22:28:32.739Z,97424.59
2023-03-29T22:31:02.245Z,97421.13
2023-03-29T22:33:31.829Z,97428.03
2023-03-29T22:35:59.833Z,97421.13
2023-03-29T22:38:29.296Z,97422.22
2023-03-29T22:40:57.075Z,97417.63
2023-03-29T22:43:24.831Z,97422.59
2023-03-29T22:45:52.417Z,97430.19
2023-03-29T22:48:19.998Z,97409.94
2023-03-29T22:50:49.344Z,97418.34
2023-03-29T22:53:17.001Z,97418.72
2023-03-29T22:55:46.088Z,97411.50
2023-03-29T22:58:13.775Z,97409.59
2023-03-29T23:00:41.553Z,97407.31
2023-03-29T23:03:09.567Z,97414.59
2023-03-29T23:05:38.312Z,97413.09
2023-03-29T23:08:06.027Z,97399.66
2023-03-29T23:10:33.844Z,97406.56
2023-03-29T23:13:02.798Z,97398.50
2023-03-29T23:15:30.342Z,97406.16
2023-03-29T23:17:58.656Z,97397.75
2023-03-29T23:20:26.288Z,97395.06
2023-03-29T23:22:54.089Z,97389.69
2023-03-29T23:25:21.715Z,97381.63
2023-03-29T23:27:49.353Z,97384.69
2023-03-29T23:30:19.441Z,97368.56
2023-03-29T23:32:47.218Z,97360.88
2023-03-29T23:35:15.835Z,97352.34
2023-03-29T23:37:44.612Z,97349.16
2023-03-29T23:40:13.981Z,97356.03
2023-03-29T23:42:44.222Z,97363.69
2023-03-29T23:45:14.791Z,97367.13
2023-03-29T23:47:45.714Z,97366.34
2023-03-29T23:50:14.255Z,97365.13
2023-03-29T23:52:41.894Z,97362.06
2023-03-29T23:55:14.091Z,97360.91
2023-03-29T23:57:43.224Z,97352.19
